createdAt,value
2018-03-29T00:00:01.510Z,27.01
2018-03-29T00:02:30.209Z,26.24
2018-03-29T00:04:58.896Z,27.58
2018-03-29T00:07:27.871Z,28.43
2018-03-29T00:09:56.575Z,28.58
2018-03-29T00:12:25.262Z,28.27
2018-03-29T00:14:53.948Z,29.76
2018-03-29T00:17:22.590Z,27.49
2018-03-29T00:19:51.317Z,29.55
2018-03-29T00:22:20.250Z,29.12
2018-03-29T00:24:49.709Z,30.23
2018-03-29T00:27:18.361Z,30.37
2018-03-29T00:29:47.353Z,30.82
2018-03-29T00:32:16.074Z,30.76
2018-03-29T00:34:44.714Z,31.15
2018-03-29T00:37:13.804Z,30.98
2018-03-29T00:39:43.262Z,31.84
2018-03-29T00:42:11.848Z,32.58
2018-03-29T00:44:40.941Z,33.65
2018-03-29T00:47:09.633Z,34.43
2018-03-29T00:49:38.272Z,29.73
2018-03-29T00:52:07.365Z,28.06
2018-03-29T00:54:36.090Z,27.41
2018-03-29T00:57:04.775Z,29.24
2018-03-29T00:59:33.566Z,31.02
2018-03-29T01:02:02.109Z,32.99
2018-03-29T01:04:30.779Z,31.69
2018-03-29T01:07:00.244Z,33.94
2018-03-29T01:09:28.911Z,33.92
2018-03-29T01:11:57.466Z,31.65
2018-03-29T01:14:26.400Z,28.94
2018-03-29T01:16:55.043Z,30.60
2018-03-29T01:19:23.772Z,32.72
2018-03-29T01:21:52.704Z,33.19
2018-03-29T01:24:22.163Z,33.43
2018-03-29T01:26:50.815Z,33.29
2018-03-29T01:29:19.536Z,31.91
2018-03-29T01:31:48.221Z,34.13
2018-03-29T01:34:16.907Z,34.54
2018-03-29T01:36:45.702Z,33.93
2018-03-29T01:39:14.278Z,33.23
2018-03-29T01:41:42.815Z,34.03
2018-03-29T01:44:12.311Z,34.77
2018-03-29T01:46:41.774Z,34.41
2018-03-29T01:49:10.316Z,34.44
2018-03-29T01:51:39.244Z,34.32
2018-03-29T01:54:07.886Z,34.79
2018-03-29T01:56:36.616Z,35.05
2018-03-29T01:59:05.597Z,35.23
2018-03-29T02:01:34.294Z,34.55
2018-03-29T02:04:02.980Z,34.71
2018-03-29T02:06:31.825Z,33.41
2018-03-29T02:09:01.176Z,30.42
2018-03-29T02:11:29.812Z,31.78
2018-03-29T02:13:58.855Z,30.79
2018-03-29T02:16:27.499Z,30.16
2018-03-29T02:18:56.227Z,31.73
2018-03-29T02:21:24.958Z,32.76
2018-03-29T02:23:54.420Z,31.44
2018-03-29T02:26:23.040Z,34.04
2018-03-29T02:28:52.510Z,34.47
2018-03-29T02:31:21.191Z,34.39
2018-03-29T02:33:49.877Z,35.06
2018-03-29T02:36:18.661Z,32.18
2018-03-29T02:38:47.248Z,32.61
2018-03-29T02:41:15.952Z,29.31
2018-03-29T02:43:44.668Z,28.88
2018-03-29T02:46:14.128Z,30.21
2018-03-29T02:48:42.752Z,31.05
2018-03-29T02:51:12.414Z,30.26
2018-03-29T02:53:41.107Z,28.63
2018-03-29T02:56:09.755Z,31.53
2018-03-29T02:58:38.678Z,31.40
2018-03-29T03:01:07.265Z,31.91
2018-03-29T03:03:35.851Z,32.18
2018-03-29T03:06:04.536Z,30.58
2018-03-29T03:08:33.223Z,30.78
2018-03-29T03:11:01.861Z,31.60
2018-03-29T03:13:31.557Z,27.40
2018-03-29T03:16:01.014Z,28.53
2018-03-29T03:18:29.700Z,28.29
2018-03-29T03:20:58.593Z,27.27
2018-03-29T03:23:27.281Z,27.96
2018-03-29T03:25:55.856Z,26.62
2018-03-29T03:28:25.017Z,25.99
2018-03-29T03:30:53.645Z,28.35
2018-03-29T03:33:22.233Z,27.41
2018-03-29T03:35:51.017Z,26.04
2018-03-29T03:38:19.703Z,26.58
2018-03-29T03:40:48.280Z,26.77
2018-03-29T03:43:17.069Z,25.91
2018-03-29T03:45:45.760Z,25.92
2018-03-29T03:48:14.406Z,24.65
2018-03-29T03:50:43.132Z,23.14
2018-03-29T03:53:11.818Z,25.15
2018-03-29T03:55:40.504Z,26.13
2018-03-29T03:58:09.477Z,27.19
2018-03-29T04:00:38.182Z,24.91
2018-03-29T04:03:06.770Z,27.83
2018-03-29T04:05:35.653Z,28.18
2018-03-29T04:08:04.339Z,26.10
2018-03-29T04:10:33.025Z,29.97
2018-03-29T04:21:12.228Z,30.88
2018-03-29T04:23:40.780Z,32.07
2018-03-29T04:26:09.392Z,30.20
2018-03-29T04:28:38.092Z,31.02
2018-03-29T04:31:11.564Z,30.96
2018-03-29T04:33:40.528Z,28.51
2018-03-29T04:36:09.080Z,28.04
2018-03-29T04:38:38.559Z,28.09
2018-03-29T04:41:07.750Z,30.30
2018-03-29T04:43:36.400Z,31.46
2018-03-29T04:46:05.122Z,30.92
2018-03-29T04:48:33.856Z,29.05
2018-03-29T04:51:03.316Z,28.91
2018-03-29T04:56:43.696Z,30.72
2018-03-29T04:59:12.382Z,31.92
2018-03-29T05:01:41.055Z,30.61
2018-03-29T05:04:09.754Z,30.44
2018-03-29T05:06:38.439Z,31.78
2018-03-29T05:09:07.164Z,32.70
2018-03-29T05:11:36.677Z,32.28
2018-03-29T05:14:06.131Z,31.01
2018-03-29T05:16:34.789Z,31.94
2018-03-29T05:19:03.810Z,33.19
2018-03-29T05:21:32.498Z,31.78
2018-03-29T05:24:01.192Z,31.29
2018-03-29T05:26:35.397Z,32.48
2018-03-29T05:29:04.086Z,33.55
2018-03-29T05:31:32.768Z,34.21
2018-03-29T05:34:01.564Z,33.59
2018-03-29T05:36:30.202Z,33.89
2018-03-29T05:38:58.936Z,32.53
2018-03-29T05:41:27.820Z,33.16
2018-03-29T05:43:56.512Z,32.92
2018-03-29T05:46:25.192Z,30.05
2018-03-29T05:48:53.891Z,30.49
2018-03-29T05:51:22.460Z,32.96
2018-03-29T05:53:51.012Z,30.37
2018-03-29T05:56:19.897Z,30.55
2018-03-29T05:58:48.632Z,29.95
2018-03-29T06:01:17.822Z,32.03
2018-03-29T06:03:46.451Z,33.22
2018-03-29T06:06:15.907Z,32.71
2018-03-29T06:08:44.635Z,33.74
2018-03-29T06:11:14.055Z,34.38
2018-03-29T06:13:43.545Z,35.65
2018-03-29T06:16:21.404Z,33.68
2018-03-29T06:18:50.034Z,33.62
2018-03-29T06:21:19.447Z,31.84
2018-03-29T06:23:48.900Z,34.41
2018-03-29T06:26:17.584Z,34.96
2018-03-29T06:28:46.270Z,36.25
2018-03-29T06:31:15.222Z,35.91
2018-03-29T06:33:43.948Z,36.20
2018-03-29T06:36:12.529Z,36.82
2018-03-29T06:38:41.452Z,35.09
2018-03-29T06:41:10.165Z,33.81
2018-03-29T06:43:39.614Z,37.29
2018-03-29T06:46:08.402Z,37.41
2018-03-29T06:48:37.083Z,36.15
2018-03-29T06:51:05.670Z,37.24
2018-03-29T06:53:34.357Z,36.16
2018-03-29T06:56:03.043Z,38.24
2018-03-29T06:58:31.674Z,38.90
2018-03-29T07:01:01.499Z,39.00
2018-03-29T07:03:30.944Z,37.02
2018-03-29T07:05:59.631Z,37.35
2018-03-29T07:08:28.568Z,38.10
2018-03-29T07:10:57.984Z,38.34
2018-03-29T07:13:26.714Z,38.77
2018-03-29T07:15:55.588Z,39.95
2018-03-29T07:18:24.288Z,40.89
2018-03-29T07:20:52.930Z,36.35
2018-03-29T07:23:22.024Z,38.38
2018-03-29T07:25:50.730Z,40.65
2018-03-29T07:28:19.416Z,41.42
2018-03-29T07:30:48.000Z,41.82
2018-03-29T07:33:16.680Z,42.34
2018-03-29T07:35:45.313Z,41.04
2018-03-29T07:38:14.971Z,40.90
2018-03-29T07:40:43.601Z,39.72
2018-03-29T07:43:13.070Z,40.77
2018-03-29T07:45:42.635Z,37.73
2018-03-29T07:48:11.276Z,40.80
2018-03-29T07:50:40.728Z,42.34
2018-03-29T07:53:09.792Z,40.39
2018-03-29T07:55:38.408Z,37.30
2018-03-29T07:58:06.994Z,41.75
2018-03-29T08:00:35.719Z,39.93
2018-03-29T08:03:05.183Z,41.25
2018-03-29T08:05:33.832Z,38.88
2018-03-29T08:08:02.594Z,41.63
2018-03-29T08:10:32.058Z,40.85
2018-03-29T08:13:01.508Z,42.62
2018-03-29T08:15:31.251Z,41.97
2018-03-29T08:17:59.958Z,41.60
2018-03-29T08:20:28.645Z,42.26
2018-03-29T08:22:58.152Z,42.67
2018-03-29T08:25:26.771Z,43.19
2018-03-29T08:27:56.239Z,40.52
2018-03-29T08:30:24.987Z,43.78
2018-03-29T08:32:53.708Z,41.87
2018-03-29T08:35:22.743Z,42.17
2018-03-29T08:37:52.308Z,40.40
2018-03-29T08:40:20.994Z,43.08
2018-03-29T08:42:49.635Z,43.66
2018-03-29T08:45:18.440Z,44.65
2018-03-29T08:47:47.162Z,42.94
2018-03-29T08:50:15.708Z,42.19
2018-03-29T08:52:44.373Z,42.64
2018-03-29T08:55:13.890Z,41.51
2018-03-29T08:57:42.618Z,42.43
2018-03-29T09:00:11.612Z,39.17
2018-03-29T09:02:40.297Z,40.67
2018-03-29T09:05:08.962Z,42.76
2018-03-29T09:07:38.056Z,42.98
2018-03-29T09:10:06.763Z,43.73
2018-03-29T09:12:35.391Z,42.67
2018-03-29T09:15:05.053Z,44.18
2018-03-29T09:17:33.596Z,44.04
2018-03-29T09:20:02.327Z,44.60
2018-03-29T09:22:31.120Z,45.22
2018-03-29T09:24:59.757Z,45.75
2018-03-29T09:27:28.483Z,44.39
2018-03-29T09:29:57.278Z,46.67
2018-03-29T09:32:25.964Z,43.95
2018-03-29T09:34:54.602Z,43.34
2018-03-29T09:37:23.338Z,40.13
2018-03-29T09:39:52.023Z,43.51
2018-03-29T09:42:20.708Z,43.27
2018-03-29T09:44:49.552Z,43.36
2018-03-29T09:47:18.100Z,44.47
2018-03-29T09:49:48.301Z,44.24
2018-03-29T09:52:17.091Z,44.70
2018-03-29T09:54:45.749Z,42.62
2018-03-29T09:57:14.458Z,43.96
2018-03-29T09:59:43.385Z,43.50
2018-03-29T10:02:18.379Z,43.22
2018-03-29T10:04:52.595Z,42.67
2018-03-29T10:07:25.088Z,44.18
2018-03-29T10:09:53.961Z,41.72
2018-03-29T10:12:22.658Z,44.92
2018-03-29T10:14:51.331Z,41.35
2018-03-29T10:17:20.984Z,42.85
2018-03-29T10:19:50.353Z,42.37
2018-03-29T10:22:18.895Z,42.74
2018-03-29T10:24:47.918Z,38.55
2018-03-29T10:27:16.603Z,43.63
2018-03-29T10:29:45.251Z,45.53
2018-03-29T10:32:13.976Z,46.04
2018-03-29T10:34:42.662Z,44.83
2018-03-29T10:37:11.305Z,43.71
2018-03-29T10:39:40.242Z,43.78
2018-03-29T10:42:08.891Z,44.16
2018-03-29T10:44:37.614Z,42.81
2018-03-29T10:47:06.577Z,45.24
2018-03-29T10:49:35.292Z,44.72
2018-03-29T10:52:03.984Z,44.42
2018-03-29T10:54:32.758Z,45.90
2018-03-29T10:57:01.449Z,47.49
2018-03-29T10:59:30.092Z,48.04
2018-03-29T11:01:59.094Z,44.81
2018-03-29T11:07:07.063Z,46.86
2018-03-29T11:09:35.744Z,45.90
2018-03-29T11:12:04.512Z,46.68
2018-03-29T11:14:33.486Z,47.21
2018-03-29T11:17:03.224Z,47.62
2018-03-29T11:19:31.909Z,46.06
2018-03-29T11:22:01.112Z,45.52
2018-03-29T11:24:29.797Z,46.08
2018-03-29T11:26:58.421Z,43.90
2018-03-29T11:29:27.513Z,44.49
2018-03-29T11:31:56.229Z,44.61
2018-03-29T11:34:24.814Z,44.67
2018-03-29T11:36:53.544Z,44.37
2018-03-29T11:39:22.999Z,45.55
2018-03-29T11:41:51.630Z,46.78
2018-03-29T11:44:21.195Z,44.82
2018-03-29T11:46:49.879Z,47.74
2018-03-29T11:49:18.564Z,47.88
2018-03-29T11:51:47.657Z,46.74
2018-03-29T11:54:16.342Z,45.10
2018-03-29T11:56:44.989Z,46.87
2018-03-29T11:59:13.714Z,43.89
2018-03-29T12:01:42.265Z,44.64
2018-03-29T12:04:10.986Z,46.41
2018-03-29T12:06:39.672Z,48.42
2018-03-29T12:09:08.457Z,45.17
2018-03-29T12:11:37.123Z,46.61
2018-03-29T12:14:06.116Z,44.58
2018-03-29T12:16:34.822Z,45.48
2018-03-29T12:19:03.454Z,46.59
2018-03-29T12:21:33.017Z,43.37
2018-03-29T12:24:02.482Z,45.08
2018-03-29T12:26:31.132Z,45.77
2018-03-29T12:29:00.061Z,46.48
2018-03-29T12:31:29.532Z,46.95
2018-03-29T12:33:58.108Z,45.09
2018-03-29T12:36:26.851Z,46.35
2018-03-29T12:38:56.472Z,47.52
2018-03-29T12:41:25.163Z,48.29
2018-03-29T12:43:54.048Z,47.44
2018-03-29T12:46:23.824Z,45.71
2018-03-29T12:48:52.471Z,45.81
2018-03-29T12:51:21.386Z,49.27
2018-03-29T12:53:49.949Z,48.00
2018-03-29T12:59:18.421Z,44.15
2018-03-29T13:01:47.145Z,45.10
2018-03-29T13:04:15.833Z,46.28
2018-03-29T13:06:44.551Z,45.91
2018-03-29T13:09:13.294Z,44.79
2018-03-29T13:11:41.902Z,45.70
2018-03-29T13:14:11.333Z,47.09
2018-03-29T13:16:40.132Z,42.03
2018-03-29T13:19:08.816Z,48.09
2018-03-29T13:21:37.459Z,48.24
2018-03-29T13:24:06.199Z,48.93
2018-03-29T13:26:34.982Z,48.82
2018-03-29T13:29:04.442Z,43.94
2018-03-29T13:31:33.908Z,43.62
2018-03-29T13:34:02.605Z,45.82
2018-03-29T13:36:31.291Z,48.18
2018-03-29T13:38:59.967Z,50.12
2018-03-29T13:41:28.661Z,49.62
2018-03-29T13:43:57.346Z,51.59
2018-03-29T13:46:26.193Z,50.22
2018-03-29T13:48:54.816Z,48.70
2018-03-29T13:51:23.303Z,43.86
2018-03-29T13:53:51.863Z,48.14
2018-03-29T13:56:20.568Z,47.96
2018-03-29T13:58:49.257Z,47.12
2018-03-29T14:01:17.938Z,47.07
2018-03-29T14:03:46.735Z,50.51
2018-03-29T14:06:15.407Z,50.49
2018-03-29T14:08:44.382Z,50.26
2018-03-29T14:11:12.975Z,46.49
2018-03-29T14:13:41.675Z,49.50
2018-03-29T14:16:10.459Z,51.14
2018-03-29T14:18:39.152Z,52.09
2018-03-29T14:21:07.798Z,50.73
2018-03-29T14:23:39.586Z,49.66
2018-03-29T14:26:16.671Z,47.94
2018-03-29T14:28:48.327Z,47.51
2018-03-29T14:31:17.013Z,48.09
2018-03-29T14:33:45.663Z,42.98
2018-03-29T14:36:14.428Z,45.37
2018-03-29T14:38:43.180Z,44.98
2018-03-29T14:41:11.814Z,45.59
2018-03-29T14:43:40.735Z,47.04
2018-03-29T14:46:09.436Z,47.00
2018-03-29T14:48:38.123Z,45.50
2018-03-29T14:51:07.009Z,44.58
2018-03-29T14:53:35.718Z,43.96
2018-03-29T14:56:04.305Z,44.09
2018-03-29T14:58:33.094Z,44.04
2018-03-29T15:01:01.795Z,45.97
2018-03-29T15:03:32.920Z,46.27
2018-03-29T15:06:01.611Z,47.63
2018-03-29T15:08:32.790Z,47.70
2018-03-29T15:11:02.167Z,46.88
2018-03-29T15:13:31.604Z,46.97
2018-03-29T15:16:01.165Z,45.14
2018-03-29T15:18:29.814Z,45.53
2018-03-29T15:20:58.536Z,43.88
2018-03-29T15:23:27.420Z,45.52
2018-03-29T15:25:56.116Z,46.23
2018-03-29T15:28:24.734Z,46.25
2018-03-29T15:31:00.137Z,46.63
2018-03-29T15:33:28.823Z,45.14
2018-03-29T15:35:57.371Z,46.33
2018-03-29T15:38:26.101Z,44.12
2018-03-29T15:40:54.646Z,44.92
2018-03-29T15:43:23.318Z,45.55
2018-03-29T15:46:20.893Z,45.92
2018-03-29T15:48:49.620Z,45.09
2018-03-29T15:51:18.313Z,46.00
2018-03-29T15:53:46.947Z,46.21
2018-03-29T15:56:15.513Z,47.88
2018-03-29T15:58:44.822Z,49.23
2018-03-29T16:01:14.481Z,48.93
2018-03-29T16:03:43.042Z,48.93
2018-03-29T16:06:11.599Z,48.96
2018-03-29T16:08:41.355Z,49.88
2018-03-29T16:11:09.996Z,48.26
2018-03-29T16:13:39.304Z,47.08
2018-03-29T16:16:08.178Z,46.53
2018-03-29T16:18:37.522Z,45.51
2018-03-29T16:21:06.112Z,45.10
2018-03-29T16:23:36.242Z,44.23
2018-03-29T16:26:04.929Z,44.30
2018-03-29T16:28:33.490Z,43.66
2018-03-29T16:31:05.217Z,43.21
2018-03-29T16:33:34.149Z,43.64
2018-03-29T16:36:10.923Z,43.11
2018-03-29T16:38:39.565Z,44.97
2018-03-29T16:41:09.017Z,44.08
2018-03-29T16:43:37.802Z,43.47
2018-03-29T16:46:07.223Z,42.77
2018-03-29T16:48:37.500Z,43.83
2018-03-29T16:51:06.280Z,45.01
2018-03-29T16:53:34.982Z,44.86
2018-03-29T16:56:03.557Z,43.38
2018-03-29T16:58:32.354Z,42.67
2018-03-29T17:01:01.003Z,42.12
2018-03-29T17:03:29.728Z,40.76
2018-03-29T17:05:58.914Z,42.40
2018-03-29T17:08:27.559Z,42.99
2018-03-29T17:10:56.287Z,42.73
2018-03-29T17:13:24.997Z,42.18
2018-03-29T17:15:56.670Z,41.15
2018-03-29T17:18:25.447Z,42.37
2018-03-29T17:20:54.229Z,42.36
2018-03-29T17:23:22.817Z,43.21
2018-03-29T17:25:51.586Z,42.87
2018-03-29T17:28:20.287Z,42.36
2018-03-29T17:30:48.866Z,42.49
2018-03-29T17:33:17.816Z,41.98
2018-03-29T17:35:46.552Z,42.05
2018-03-29T17:38:15.101Z,41.74
2018-03-29T17:40:43.735Z,42.12
2018-03-29T17:43:12.400Z,41.13
2018-03-29T17:45:51.224Z,40.71
2018-03-29T17:48:26.455Z,40.76
2018-03-29T17:50:57.714Z,40.85
2018-03-29T17:53:26.498Z,40.66
2018-03-29T17:55:55.049Z,40.72
2018-03-29T17:58:24.594Z,40.68
2018-03-29T18:00:53.295Z,40.98
2018-03-29T18:03:21.981Z,41.26
2018-03-29T18:05:50.775Z,40.73
2018-03-29T18:08:19.414Z,41.41
2018-03-29T18:10:48.146Z,41.36
2018-03-29T18:13:17.030Z,41.18
2018-03-29T18:15:46.345Z,41.62
2018-03-29T18:18:14.905Z,41.68
2018-03-29T18:20:43.944Z,41.32
2018-03-29T18:23:12.810Z,40.79
2018-03-29T18:25:41.357Z,41.65
2018-03-29T18:28:10.164Z,41.55
2018-03-29T18:30:39.730Z,41.60
2018-03-29T18:33:08.292Z,42.46
2018-03-29T18:35:37.667Z,41.11
2018-03-29T18:38:06.349Z,37.85
2018-03-29T18:40:35.034Z,40.04
2018-03-29T18:43:03.867Z,41.18
2018-03-29T18:45:32.562Z,41.19
2018-03-29T18:48:01.978Z,41.40
2018-03-29T18:50:30.745Z,41.79
2018-03-29T18:53:00.061Z,42.19
2018-03-29T18:55:28.607Z,42.48
2018-03-29T18:57:58.345Z,42.00
2018-03-29T19:00:26.970Z,42.19
2018-03-29T19:02:55.653Z,41.47
2018-03-29T19:05:24.425Z,41.96
2018-03-29T19:07:52.970Z,42.04
2018-03-29T19:10:21.677Z,41.31
2018-03-29T19:12:51.252Z,41.23
2018-03-29T19:15:21.671Z,40.91
2018-03-29T19:17:50.575Z,41.72
2018-03-29T19:20:19.134Z,41.38
2018-03-29T19:22:47.888Z,40.96
2018-03-29T19:25:16.798Z,40.43
2018-03-29T19:27:45.366Z,39.96
2018-03-29T19:30:13.941Z,40.94
2018-03-29T19:32:43.669Z,40.18
2018-03-29T19:35:12.231Z,40.70
2018-03-29T19:37:41.357Z,40.62
2018-03-29T19:40:10.770Z,40.73
2018-03-29T19:42:39.337Z,40.08
2018-03-29T19:45:08.648Z,39.09
2018-03-29T19:47:37.336Z,39.93
2018-03-29T19:50:05.888Z,39.49
2018-03-29T19:52:35.204Z,40.10
2018-03-29T19:55:03.930Z,40.12
2018-03-29T19:57:32.473Z,39.63
2018-03-29T20:00:01.034Z,40.34
2018-03-29T20:02:30.445Z,40.83
2018-03-29T20:04:59.023Z,40.38
2018-03-29T20:07:27.608Z,39.95
2018-03-29T20:09:57.114Z,39.51
2018-03-29T20:12:26.430Z,40.40
2018-03-29T20:14:54.977Z,40.64
2018-03-29T20:17:24.552Z,40.23
2018-03-29T20:19:53.246Z,40.65
2018-03-29T20:22:22.029Z,39.98
2018-03-29T20:24:51.120Z,39.45
2018-03-29T20:27:19.777Z,39.78
2018-03-29T20:29:48.492Z,40.29
2018-03-29T20:32:17.793Z,39.42
2018-03-29T20:34:46.478Z,39.85
2018-03-29T20:37:15.171Z,40.24
2018-03-29T20:39:43.852Z,39.50
2018-03-29T20:42:12.581Z,40.20
2018-03-29T20:44:42.045Z,39.83
2018-03-29T20:47:10.822Z,40.11
2018-03-29T20:49:39.514Z,40.37
2018-03-29T20:52:08.159Z,40.22
2018-03-29T20:54:37.149Z,38.87
2018-03-29T20:57:05.878Z,39.49
2018-03-29T20:59:34.536Z,39.87
2018-03-29T21:02:03.352Z,40.28
2018-03-29T21:04:32.097Z,40.49
2018-03-29T21:07:00.732Z,38.70
2018-03-29T21:09:29.516Z,39.66
2018-03-29T21:11:58.202Z,39.57
2018-03-29T21:14:26.890Z,38.06
2018-03-29T21:16:56.594Z,37.89
2018-03-29T21:19:25.280Z,38.97
2018-03-29T21:21:53.923Z,38.56
2018-03-29T21:24:22.651Z,39.15
2018-03-29T21:26:51.338Z,37.70
2018-03-29T21:29:20.026Z,38.46
2018-03-29T21:31:49.225Z,38.96
2018-03-29T21:34:17.983Z,39.39
2018-03-29T21:36:47.309Z,38.84
2018-03-29T21:39:16.257Z,39.17
2018-03-29T21:41:45.096Z,39.94
2018-03-29T21:44:13.731Z,39.21
2018-03-29T21:46:43.452Z,38.98
2018-03-29T21:49:12.178Z,39.40
2018-03-29T21:51:40.988Z,39.23
2018-03-29T21:54:10.730Z,39.45
2018-03-29T21:56:39.461Z,39.46
2018-03-29T21:59:08.036Z,39.10
2018-03-29T22:01:36.931Z,38.32
2018-03-29T22:04:05.518Z,36.75
2018-03-29T22:06:34.205Z,36.26
2018-03-29T22:09:02.949Z,34.20
2018-03-29T22:11:31.674Z,35.12
2018-03-29T22:14:00.261Z,37.48
2018-03-29T22:16:29.040Z,37.14
2018-03-29T22:18:57.687Z,35.19
2018-03-29T22:21:26.416Z,36.47
2018-03-29T22:23:55.105Z,38.42
2018-03-29T22:26:23.901Z,38.81
2018-03-29T22:28:53.397Z,39.25
2018-03-29T22:31:22.951Z,39.09
2018-03-29T22:33:52.412Z,35.91
2018-03-29T22:36:21.097Z,34.69
2018-03-29T22:38:49.830Z,36.67
2018-03-29T22:41:19.282Z,36.54
2018-03-29T22:43:47.969Z,36.59
2018-03-29T22:46:16.755Z,37.14
2018-03-29T22:48:45.449Z,37.16
2018-03-29T22:51:14.145Z,37.57
2018-03-29T22:53:42.913Z,37.65
2018-03-29T22:56:11.606Z,37.52
2018-03-29T22:58:40.249Z,37.71
2018-03-29T23:01:08.977Z,37.59
2018-03-29T23:03:37.609Z,36.24
2018-03-29T23:06:07.067Z,34.43
2018-03-29T23:08:35.856Z,36.46
2018-03-29T23:11:04.537Z,36.22
2018-03-29T23:13:33.228Z,37.11
2018-03-29T23:16:02.113Z,37.57
2018-03-29T23:18:30.796Z,37.50
2018-03-29T23:20:59.483Z,37.87
2018-03-29T23:23:28.225Z,35.63
2018-03-29T23:25:57.678Z,34.67
2018-03-29T23:28:26.265Z,36.12
2018-03-29T23:30:55.409Z,37.16
2018-03-29T23:33:24.141Z,37.24
2018-03-29T23:35:52.793Z,36.98
2018-03-29T23:38:21.791Z,37.52
2018-03-29T23:40:50.505Z,37.12
2018-03-29T23:43:19.192Z,37.23
2018-03-29T23:45:47.986Z,37.43
2018-03-29T23:48:16.671Z,37.50
2018-03-29T23:50:45.501Z,37.38
2018-03-29T23:53:14.966Z,37.13
2018-03-29T23:55:43.560Z,37.51
2018-03-29T23:58:18.273Z,37.40
